Position Fahrer Laps Zeit Diff Beste Runde Fahrzeug Status Gesamt Bonuspunkte Strafpunkte
1 Florian Maak 13 25:35.341 - 1:57.240 BMW M2 CS Racing Beendet 100 0 0
2 Luis Roters 13 25:35.517 0:00.176 1:56.967 BMW M2 CS Racing Beendet 94 0 0
3 Felix Arndt 13 25:36.278 0:00.937 1:57.022 BMW M2 CS Racing Beendet 91 2 0
4 Jan-Erik Tügel 13 25:39.904 0:04.563 1:57.110 BMW M2 CS Racing Beendet 85 0 0
5 Leon Augustat 13 25:42.226 0:06.885 1:57.082 BMW M2 CS Racing Beendet 81 0 0
6 Leon Harhoff 13 25:45.849 0:10.508 1:57.060 BMW M2 CS Racing Beendet 77 0 0
7 Max Schwanke 13 25:52.845 0:17.504 1:57.425 BMW M2 CS Racing Beendet 73 0 0
8 Marcel Kühnel 13 25:58.028 0:22.687 1:58.602 BMW M2 CS Racing Beendet 70 0 0
9 Tobias Lambrich 13 26:02.445 0:27.104 1:58.545 BMW M2 CS Racing Beendet 67 0 0
10 René Patzer 13 26:05.058 0:29.717 1:58.142 BMW M2 CS Racing Beendet 64 0 0
11 Michael Klose 13 26:15.369 0:40.028 1:58.595 BMW M2 CS Racing Beendet 61 0 0
12 Nico Kaluza 13 26:19.069 0:43.728 1:57.907 BMW M2 CS Racing Beendet 58 0 0
13 Daniel Rabenstein 13 26:24.127 0:48.786 1:59.047 BMW M2 CS Racing Beendet 55 0 0
14 Huck Norbert 13 26:37.209 1:01.868 1:59.737 BMW M2 CS Racing Beendet 52 0 0
15 Janis Strietholt 13 26:40.154 1:04.813 1:58.755 BMW M2 CS Racing Beendet 49 0 0
16 Ferenc Nagy 13 26:46.151 1:10.810 2:00.207 BMW M2 CS Racing Beendet 46 0 0

Rennverlauf

Die schnellsten 5 pro Runde

Runde 1

Pos Rennpos Fahrer Zeit Diff
1 1 René Patzer 2:02.387 -
2 2 Tobias Lambrich 2:02.989 0:00.602
3 3 Janis Strietholt 2:03.061 0:00.674
4 4 Florian Maak 2:04.572 0:02.185
5 5 Luis Roters 2:05.779 0:03.392

Runde 2

Pos Rennpos Fahrer Zeit Diff
1 3 Florian Maak 1:57.382 -
2 6 Max Schwanke 1:57.425 0:00.043
3 5 Felix Arndt 1:57.580 0:00.198
4 7 Leon Harhoff 1:57.657 0:00.275
5 4 Luis Roters 1:57.665 0:00.283

Runde 3

Pos Rennpos Fahrer Zeit Diff
1 7 Leon Harhoff 1:57.545 -
2 8 Jan-Erik Tügel 1:57.612 0:00.067
3 4 Felix Arndt 1:57.750 0:00.205
4 10 Leon Augustat 1:57.970 0:00.425
5 3 Luis Roters 1:57.985 0:00.440

Runde 4

Pos Rennpos Fahrer Zeit Diff
1 8 Leon Augustat 1:57.292 -
2 1 Florian Maak 1:57.412 0:00.120
3 5 Leon Harhoff 1:57.607 0:00.315
4 6 Max Schwanke 1:57.990 0:00.698
5 7 Jan-Erik Tügel 1:58.075 0:00.783

Runde 5

Pos Rennpos Fahrer Zeit Diff
1 2 Luis Roters 1:56.967 -
2 7 Leon Augustat 1:57.082 0:00.115
3 1 Florian Maak 1:57.315 0:00.348
4 6 Jan-Erik Tügel 1:57.512 0:00.545
5 3 Felix Arndt 1:58.065 0:01.098

Runde 6

Pos Rennpos Fahrer Zeit Diff
1 2 Luis Roters 1:57.072 -
2 3 Felix Arndt 1:57.227 0:00.155
3 1 Florian Maak 1:57.375 0:00.303
4 8 Leon Harhoff 1:57.577 0:00.505
5 4 Jan-Erik Tügel 1:57.935 0:00.863

Runde 7

Pos Rennpos Fahrer Zeit Diff
1 3 Felix Arndt 1:57.060 -
2 1 Florian Maak 1:57.240 0:00.180
3 2 Luis Roters 1:57.270 0:00.210
4 4 Jan-Erik Tügel 1:57.377 0:00.317
5 7 Leon Harhoff 1:57.637 0:00.577

Runde 8

Pos Rennpos Fahrer Zeit Diff
1 4 Jan-Erik Tügel 1:57.110 -
2 2 Luis Roters 1:57.220 0:00.110
3 5 Leon Augustat 1:57.365 0:00.255
4 3 Felix Arndt 1:57.450 0:00.340
5 7 Leon Harhoff 1:57.620 0:00.510

Runde 9

Pos Rennpos Fahrer Zeit Diff
1 3 Felix Arndt 1:57.030 -
2 2 Luis Roters 1:57.117 0:00.087
3 7 Leon Harhoff 1:57.235 0:00.205
4 5 Leon Augustat 1:57.282 0:00.252
5 1 Florian Maak 1:57.432 0:00.402

Runde 10

Pos Rennpos Fahrer Zeit Diff
1 3 Felix Arndt 1:57.022 -
2 2 Luis Roters 1:57.380 0:00.358
3 5 Leon Augustat 1:57.410 0:00.388
4 1 Florian Maak 1:57.467 0:00.445
5 6 Leon Harhoff 1:57.532 0:00.510

Runde 11

Pos Rennpos Fahrer Zeit Diff
1 5 Leon Augustat 1:57.177 -
2 6 Leon Harhoff 1:57.180 0:00.003
3 4 Jan-Erik Tügel 1:57.275 0:00.098
4 3 Felix Arndt 1:57.615 0:00.438
5 1 Florian Maak 1:57.667 0:00.490

Runde 12

Pos Rennpos Fahrer Zeit Diff
1 6 Leon Harhoff 1:57.060 -
2 3 Felix Arndt 1:57.282 0:00.222
3 5 Leon Augustat 1:57.330 0:00.270
4 1 Florian Maak 1:57.347 0:00.287
5 2 Luis Roters 1:57.567 0:00.507

Runde 13

Pos Rennpos Fahrer Zeit Diff
1 4 Jan-Erik Tügel 1:57.370 -
2 6 Leon Harhoff 1:57.457 0:00.087
3 2 Luis Roters 1:57.540 0:00.170
4 3 Felix Arndt 1:57.577 0:00.207
5 1 Florian Maak 1:57.835 0:00.465

SERVER

0 / 61
virtualracing.org #1 GTM
Training 1Lime Rock Park -- Uphill Chicane
0 / 81
virtualracing.org #3 FS
Training 1Lime Rock Park -- Uphill Chicane
0 / 81
virtualracing.org #4 LSM
Training 1Spa-Francorchamps Endurance
0 / 34
virtualracing.org #5 VRF1S
Training 1Barcelona 2021
0 / 34
virtualracing.org #6 VRCS
Training 1Donington Park National Circuit
0 / 81
virtualracing.org #P1 BTCC
Training 1Oulton Park Island
0 / 81
virtualracing.org #P2 CA
Training 1Oulton Park International NC
0 / 34
virtualracing.org #P3 Mini
QualifikationSilverstone National
0 / 33
virtualracing.org #P4 IR18
Training 1Iowa Speedway Oval
0 / 104
virtualracing.org VRES L
TesttagNuerburgring -- rF2LN 24h
13 / 104
virtualracing.org VRES T
TesttagNuerburgring -- rF2LN 24h
0/31
virtualracing.org#4 GTC Training Standard
TrainingCircuito de Jerez - GP
0/31
virtualracing.org#5 GTC Training A
TrainingDaytona International Speedway - Road Course
0/16
virtualracing.org#30 ALT Training
Trainingaa_dover_speedway-nh